• Join FlightAware (Why Join?)
  • Login
  • US Flag 
09:10AM EDT


 

Airport Tracker/Info


-or-


 

Live Flight TrackerFlight Track Log ✈ CTL16 ✈ 15-May-2013 ✈ KOSU - KHAO

Flight Track Log - Related Links

Times and Time Zones

All times are in EDT time to prevent confusion due to time zone crossing. See the CTL16 flight status page for this flight to view local times or setup timezone preferences in your user account.

Time Position Orientation Groundspeed Altitude Reporting Facility
EDT Latitude Longitude Course Direction KTS MPH feet Rate Location/Type
06:58PM 40.0758 -83.0956 272° West 102 117 1,500  Level Indianapolis Center
06:59PM 40.0764 -83.1147 272° West 108 124 2,000 780 Climbing Indianapolis Center
06:59PM 40.0761 -83.1328 269° West 106 122 2,400 1,080 Climbing Indianapolis Center
07:00PM 40.0736 -83.1581 263° West 105 121 3,100 1,140 Climbing Indianapolis Center
07:00PM 40.0728 -83.1764 267° West 104 120 3,600 840 Climbing Indianapolis Center
07:01PM 40.0647 -83.1925 237° Southwest 99 114 4,000 360 Climbing Indianapolis Center
07:01PM 40.0550 -83.2097 234° Southwest 115 132 4,000  Level Indianapolis Center
07:02PM 40.0456 -83.2283 236° Southwest 135 155 4,000  Level Indianapolis Center
07:02PM 40.0336 -83.2506 235° Southwest 125 144 4,000  Level Indianapolis Center
07:03PM 40.0239 -83.2667 232° Southwest 144 166 4,000  Level Indianapolis Center
07:03PM 40.0100 -83.2942 237° Southwest 137 158 4,000  Level Indianapolis Center
07:04PM 40.0019 -83.3103 237° Southwest 144 166 4,000  Level Indianapolis Center
07:04PM 39.9875 -83.3361 234° Southwest 140 161 4,000  Level Indianapolis Center
07:05PM 39.9781 -83.3536 235° Southwest 138 159 4,000  Level Indianapolis Center
07:05PM 39.9669 -83.3778 239° Southwest 139 160 4,000  Level Indianapolis Center
07:06PM 39.9583 -83.3947 236° Southwest 134 154 4,000  Level Indianapolis Center
07:06PM 39.9422 -83.4267 237° Southwest 137 158 4,000  Level Indianapolis Center
07:07PM 39.9361 -83.4411 241° Southwest 139 160 4,000 -120 Level Indianapolis Center
07:07PM 39.9197 -83.4694 233° Southwest 140 161 3,900 -120 Descending Indianapolis Center
07:08PM 39.9122 -83.4844 237° Southwest 142 163 3,900 60 Level Indianapolis Center
07:09PM 39.8989 -83.5108 237° Southwest 139 160 4,000 60 Climbing Indianapolis Center
07:09PM 39.8900 -83.5281 236° Southwest 140 161 4,000  Level Indianapolis Center
07:10PM 39.8764 -83.5517 233° Southwest 140 161 4,000  Level Indianapolis Center
07:11PM 39.8550 -83.5942 237° Southwest 140 161 4,000 -120 Level Indianapolis Center
07:11PM 39.8439 -83.6147 235° Southwest 140 161 3,900 -120 Descending Indianapolis Center
07:12PM 39.8289 -83.6417 234° Southwest 139 160 3,900 60 Level Indianapolis Center
07:12PM 39.8222 -83.6553 237° Southwest 153 176 4,000 60 Climbing Indianapolis Center
07:13PM 39.8067 -83.6828 234° Southwest 138 159 4,000 -120 Level Indianapolis Center
07:13PM 39.7981 -83.6986 235° Southwest 126 145 3,900 -120 Descending Indianapolis Center
07:14PM 39.7856 -83.7225 236° Southwest 136 157 3,900  Level Indianapolis Center
07:14PM 39.7783 -83.7369 237° Southwest 130 150 3,900  Level Indianapolis Center
07:15PM 39.7650 -83.7617 235° Southwest 132 152 3,900  Level Indianapolis Center
07:15PM 39.7564 -83.7775 235° Southwest 130 150 3,900  Level Indianapolis Center
07:16PM 39.7436 -83.8000 234° Southwest 131 151 3,900 60 Level Indianapolis Center
07:16PM 39.7344 -83.8181 237° Southwest 133 153 4,000  Climbing Indianapolis Center
07:17PM 39.7219 -83.8414 235° Southwest 134 154 3,900  Descending Indianapolis Center
07:17PM 39.7100 -83.8639 235° Southwest 136 157 4,000 60 Climbing Indianapolis Center
07:18PM 39.7000 -83.8819 234° Southwest 136 157 4,000  Level Indianapolis Center
07:18PM 39.6881 -83.9072 238° Southwest 140 161 4,000  Level Indianapolis Center
07:19PM 39.6794 -83.9231 235° Southwest 135 155 4,000 -120 Level Indianapolis Center
07:19PM 39.6681 -83.9481 239° Southwest 134 154 3,900 -120 Descending Indianapolis Center
07:20PM 39.6550 -83.9725 235° Southwest 136 157 3,900 60 Level Indianapolis Center
07:20PM 39.6483 -83.9861 238° Southwest 135 155 4,000 60 Climbing Indianapolis Center
07:21PM 39.6347 -84.0131 237° Southwest 135 155 4,000  Level Indianapolis Center
07:21PM 39.6283 -84.0269 239° Southwest 135 155 4,000  Level Indianapolis Center
07:22PM 39.6131 -84.0550 235° Southwest 137 158 4,000 -60 Level Indianapolis Center
07:23PM 39.5906 -84.0942 233° Southwest 136 157 3,900  Descending Indianapolis Center
07:24PM 39.5681 -84.1336 234° Southwest 135 155 4,000  Climbing Indianapolis Center
07:25PM 39.5453 -84.1744 234° Southwest 136 157 4,000 -60 Level Indianapolis Center
07:26PM 39.5242 -84.2164 237° Southwest 138 159 3,900 -300 Descending Indianapolis Center
07:27PM 39.5039 -84.2578 238° Southwest 139 160 3,500 -420 Descending Indianapolis Center
07:29PM 39.4712 -84.3048 228° Southwest  Level FlightAware Approximate
07:36PM 39.3500 -84.5167 229° Southwest  Level FlightAware Approximate
07:37PM 39.3638 -84.5219 229° Southwest  Level Estimated
07:38PM 39.3638 -84.5219 229° Southwest  Level Estimated
07:39PM 39.3638 -84.5219 229° Southwest  Level Estimated
07:40PM 39.3638 -84.5219 229° Southwest  Level Estimated
07:41PM 39.3638 -84.5219 229° Southwest  Level Estimated
07:42PM 39.3638 -84.5219 229° Southwest  Level Estimated
07:43PM 39.3638 -84.5219 229° Southwest  Level Estimated